createdAt,value
2017-04-18T00:00:25.427Z,0
2017-04-18T00:01:05.925Z,0
2017-04-18T00:01:46.393Z,0
2017-04-18T00:02:26.890Z,0
2017-04-18T00:03:07.370Z,0
2017-04-18T00:03:47.850Z,0
2017-04-18T00:04:28.341Z,0
2017-04-18T00:05:08.825Z,0
2017-04-18T00:05:49.288Z,0
2017-04-18T00:06:29.793Z,0
2017-04-18T00:07:10.263Z,0
2017-04-18T00:07:50.762Z,0
2017-04-18T00:08:31.255Z,0
2017-04-18T00:09:11.728Z,0
2017-04-18T00:09:52.221Z,0
2017-04-18T00:10:32.712Z,0
2017-04-18T00:11:13.214Z,0
2017-04-18T00:11:53.697Z,0
2017-04-18T00:12:34.213Z,0
2017-04-18T00:13:14.691Z,0
2017-04-18T00:13:55.183Z,0
2017-04-18T00:14:35.670Z,0
2017-04-18T00:15:16.150Z,0
2017-04-18T00:15:56.648Z,0
2017-04-18T00:16:37.132Z,0
2017-04-18T00:17:17.617Z,0
2017-04-18T00:17:58.100Z,0
2017-04-18T00:18:38.579Z,0
2017-04-18T00:19:19.074Z,0
2017-04-18T00:19:59.561Z,0
2017-04-18T00:20:40.034Z,0
2017-04-18T00:21:20.539Z,0
2017-04-18T00:22:01.013Z,0
2017-04-18T00:22:41.490Z,0
2017-04-18T00:23:21.974Z,0
2017-04-18T00:24:02.461Z,0
2017-04-18T00:24:43.719Z,0
2017-04-18T00:25:24.167Z,0
2017-04-18T00:26:04.654Z,0
2017-04-18T00:26:45.132Z,0
2017-04-18T00:27:25.609Z,0
2017-04-18T00:28:06.125Z,0
2017-04-18T00:28:46.573Z,0
2017-04-18T00:29:27.051Z,0
2017-04-18T00:30:07.538Z,0
2017-04-18T00:30:48.014Z,0
2017-04-18T00:31:28.506Z,0
2017-04-18T00:32:08.997Z,0
2017-04-18T00:32:49.495Z,0
2017-04-18T00:33:29.949Z,0
2017-04-18T00:34:10.468Z,0
2017-04-18T00:34:50.892Z,0
2017-04-18T00:35:31.395Z,0
2017-04-18T00:36:11.866Z,0
2017-04-18T00:36:52.347Z,0
2017-04-18T00:37:32.817Z,0
2017-04-18T00:38:13.282Z,0
2017-04-18T00:38:53.772Z,0
2017-04-18T00:39:34.253Z,0
2017-04-18T00:40:14.732Z,0
2017-04-18T00:40:55.216Z,0
2017-04-18T00:41:35.703Z,0
2017-04-18T00:42:16.193Z,0
2017-04-18T00:42:56.665Z,0
2017-04-18T00:43:37.139Z,0
2017-04-18T00:44:17.608Z,0
2017-04-18T00:46:45.574Z,0
2017-04-18T00:47:26.058Z,0
2017-04-18T00:48:06.538Z,0
2017-04-18T00:48:47.072Z,0
2017-04-18T00:49:27.495Z,0
2017-04-18T00:50:07.984Z,0
2017-04-18T00:50:48.464Z,0
2017-04-18T00:51:28.948Z,0
2017-04-18T00:52:09.433Z,0
2017-04-18T00:52:49.918Z,0
2017-04-18T00:53:30.411Z,0
2017-04-18T00:54:10.900Z,0
2017-04-18T00:54:51.370Z,0
2017-04-18T00:55:31.862Z,0
2017-04-18T00:56:12.348Z,0
2017-04-18T00:56:52.836Z,0
2017-04-18T00:57:33.311Z,0
2017-04-18T00:58:13.796Z,0
2017-04-18T00:58:54.293Z,0
2017-04-18T00:59:34.820Z,0
2017-04-18T01:00:15.262Z,0
2017-04-18T01:00:55.748Z,0
2017-04-18T01:01:36.230Z,0
2017-04-18T01:02:16.731Z,0
2017-04-18T01:02:57.206Z,0
2017-04-18T01:03:37.693Z,0
2017-04-18T01:04:18.173Z,0
2017-04-18T01:04:58.646Z,0
2017-04-18T01:05:39.124Z,0
2017-04-18T01:06:19.627Z,0
2017-04-18T01:07:00.122Z,0
2017-04-18T01:07:40.597Z,0
2017-04-18T01:08:21.085Z,0
2017-04-18T01:09:01.574Z,0
2017-04-18T01:09:42.070Z,0
2017-04-18T01:10:22.542Z,0
2017-04-18T01:11:03.044Z,0
2017-04-18T01:11:43.549Z,0
2017-04-18T01:12:24.026Z,0
2017-04-18T01:13:04.485Z,0
2017-04-18T01:13:44.948Z,0
2017-04-18T01:14:25.394Z,0
2017-04-18T01:15:05.856Z,0
2017-04-18T01:15:46.282Z,0
2017-04-18T01:16:26.755Z,0
2017-04-18T01:17:07.185Z,0
2017-04-18T01:17:47.637Z,0
2017-04-18T01:18:28.099Z,0
2017-04-18T01:21:01.106Z,0
2017-04-18T01:21:41.580Z,0
2017-04-18T01:22:22.071Z,0
2017-04-18T01:23:02.550Z,0
2017-04-18T01:23:43.021Z,0
2017-04-18T01:24:23.520Z,0
2017-04-18T01:25:03.989Z,0
2017-04-18T01:25:44.465Z,0
2017-04-18T01:26:24.977Z,0
2017-04-18T01:27:05.462Z,0
2017-04-18T01:27:45.963Z,0
2017-04-18T01:28:26.434Z,0
2017-04-18T01:29:06.913Z,0
2017-04-18T01:29:47.398Z,0
2017-04-18T01:30:27.910Z,0
2017-04-18T01:31:08.410Z,0
2017-04-18T01:31:48.894Z,0
2017-04-18T01:32:29.374Z,0
2017-04-18T01:33:09.867Z,0
2017-04-18T01:33:50.340Z,0
2017-04-18T01:34:30.831Z,0
2017-04-18T01:35:11.314Z,0
2017-04-18T01:35:51.780Z,0
2017-04-18T01:36:32.278Z,0
2017-04-18T01:37:12.759Z,0
2017-04-18T01:37:53.236Z,0
2017-04-18T01:38:33.709Z,0
2017-04-18T01:39:14.193Z,0
2017-04-18T01:39:54.674Z,0
2017-04-18T01:40:35.151Z,0
2017-04-18T01:41:15.639Z,0
2017-04-18T01:41:56.131Z,0
2017-04-18T01:42:36.673Z,0
2017-04-18T01:43:17.166Z,0
2017-04-18T01:43:57.624Z,0
2017-04-18T01:44:38.106Z,0
2017-04-18T01:45:18.664Z,0
2017-04-18T01:45:59.165Z,0
2017-04-18T01:46:39.651Z,0
2017-04-18T01:47:20.129Z,0
2017-04-18T01:48:00.604Z,0
2017-04-18T01:48:41.079Z,0
2017-04-18T01:49:21.571Z,0
2017-04-18T01:50:02.055Z,0
2017-04-18T01:50:42.530Z,0
2017-04-18T01:51:23.032Z,0
2017-04-18T01:52:03.503Z,0
2017-04-18T01:52:44.005Z,0
2017-04-18T01:53:24.447Z,0
2017-04-18T01:54:04.924Z,0
2017-04-18T01:54:45.423Z,0
2017-04-18T01:55:25.907Z,0
2017-04-18T01:56:06.380Z,0
2017-04-18T01:56:46.859Z,0
2017-04-18T01:57:27.357Z,0
2017-04-18T01:58:07.849Z,0
2017-04-18T01:58:49.098Z,0
2017-04-18T01:59:29.624Z,0
2017-04-18T02:00:10.103Z,0
2017-04-18T02:00:50.568Z,0
2017-04-18T02:01:31.070Z,0
2017-04-18T02:02:11.556Z,0
2017-04-18T02:02:52.032Z,0
2017-04-18T02:03:32.569Z,0
2017-04-18T02:04:12.988Z,0
2017-04-18T02:04:53.462Z,0
2017-04-18T02:05:33.938Z,0
2017-04-18T02:06:14.407Z,0
2017-04-18T02:06:54.879Z,0
2017-04-18T02:07:35.311Z,0
2017-04-18T02:08:15.790Z,0
2017-04-18T02:08:56.240Z,0
2017-04-18T02:11:34.315Z,0
2017-04-18T02:12:14.818Z,0
2017-04-18T02:12:55.282Z,0
2017-04-18T02:13:35.729Z,0
2017-04-18T02:14:16.199Z,0
2017-04-18T02:14:56.695Z,0
2017-04-18T02:15:37.127Z,0
2017-04-18T02:16:17.597Z,0
2017-04-18T02:18:50.602Z,0
2017-04-18T02:19:31.080Z,0
2017-04-18T02:20:11.575Z,0
2017-04-18T02:20:52.055Z,0
2017-04-18T02:21:32.518Z,0
2017-04-18T02:22:13.014Z,0
2017-04-18T02:22:53.511Z,0
2017-04-18T02:23:33.991Z,0
2017-04-18T02:24:14.452Z,0
2017-04-18T02:24:54.932Z,0
2017-04-18T02:25:35.412Z,0
2017-04-18T02:26:15.898Z,0
2017-04-18T02:26:56.388Z,0
2017-04-18T02:27:36.872Z,0
2017-04-18T02:28:17.341Z,0
2017-04-18T02:28:57.839Z,0
2017-04-18T02:29:38.338Z,0
2017-04-18T02:30:18.814Z,0
2017-04-18T02:30:59.336Z,0
2017-04-18T02:31:39.794Z,0
2017-04-18T02:32:20.305Z,0
2017-04-18T02:33:00.754Z,0
2017-04-18T02:33:41.251Z,0
2017-04-18T02:34:21.729Z,0
2017-04-18T02:35:02.217Z,0
2017-04-18T02:35:42.688Z,0
2017-04-18T02:36:23.166Z,0
2017-04-18T02:37:03.653Z,0
2017-04-18T02:37:44.147Z,0
2017-04-18T02:38:24.640Z,0
2017-04-18T02:39:05.117Z,0
2017-04-18T02:39:45.586Z,0
2017-04-18T02:40:26.084Z,0
2017-04-18T02:41:06.562Z,0
2017-04-18T02:41:47.021Z,0
2017-04-18T02:42:27.486Z,0
2017-04-18T02:43:07.971Z,0
2017-04-18T02:43:48.451Z,0
2017-04-18T02:44:28.937Z,0
2017-04-18T02:45:09.413Z,0
2017-04-18T02:45:49.906Z,0
2017-04-18T02:46:30.358Z,0
2017-04-18T02:47:10.840Z,0
2017-04-18T02:47:51.313Z,0
2017-04-18T02:48:31.804Z,0
2017-04-18T02:49:12.271Z,0
2017-04-18T02:49:52.770Z,0
2017-04-18T02:50:33.242Z,0
2017-04-18T02:51:13.734Z,0
2017-04-18T02:51:54.228Z,0
2017-04-18T02:52:34.717Z,0
2017-04-18T02:53:15.188Z,0
2017-04-18T02:53:55.646Z,0
2017-04-18T02:54:36.131Z,0
2017-04-18T02:55:16.625Z,0
2017-04-18T02:55:57.119Z,0
2017-04-18T02:56:37.579Z,0
2017-04-18T02:57:18.055Z,0
2017-04-18T02:57:58.547Z,0
2017-04-18T02:58:39.017Z,0
2017-04-18T02:59:19.515Z,0
2017-04-18T02:59:59.978Z,0
2017-04-18T03:00:40.437Z,0
2017-04-18T03:01:20.906Z,0
2017-04-18T03:02:01.332Z,0
2017-04-18T03:02:41.784Z,0
2017-04-18T03:04:59.598Z,0
2017-04-18T03:05:40.039Z,0
2017-04-18T03:06:20.508Z,0
2017-04-18T03:07:00.995Z,0
2017-04-18T03:09:18.758Z,0
2017-04-18T03:09:59.238Z,0
2017-04-18T03:10:39.715Z,0
2017-04-18T03:11:20.221Z,0
2017-04-18T03:12:00.661Z,0
2017-04-18T03:12:41.144Z,0
2017-04-18T03:13:21.624Z,0
2017-04-18T03:14:02.145Z,0
2017-04-18T03:14:42.588Z,0
2017-04-18T03:15:23.064Z,0
2017-04-18T03:16:03.570Z,0
2017-04-18T03:16:44.026Z,0
2017-04-18T03:17:24.506Z,0
2017-04-18T03:18:04.980Z,0
2017-04-18T03:18:45.476Z,0
2017-04-18T03:19:25.944Z,0
2017-04-18T03:21:53.873Z,0
2017-04-18T03:22:34.337Z,0
2017-04-18T03:23:14.824Z,0
2017-04-18T03:23:55.336Z,0
2017-04-18T03:24:35.827Z,0
2017-04-18T03:25:16.315Z,0
2017-04-18T03:25:56.776Z,0
2017-04-18T03:26:37.215Z,0
2017-04-18T03:27:17.703Z,0
2017-04-18T03:27:58.182Z,0
2017-04-18T03:28:38.669Z,0
2017-04-18T03:29:19.147Z,0
2017-04-18T03:29:59.620Z,0
2017-04-18T03:30:40.079Z,0
2017-04-18T03:33:13.119Z,0
2017-04-18T03:33:53.602Z,0
2017-04-18T03:34:34.100Z,0
2017-04-18T03:35:14.642Z,0
2017-04-18T03:35:55.080Z,0
2017-04-18T03:36:35.581Z,0
2017-04-18T03:37:16.068Z,0
2017-04-18T03:37:56.541Z,0
2017-04-18T03:38:37.034Z,0
2017-04-18T03:39:17.500Z,0
2017-04-18T03:39:57.992Z,0
2017-04-18T03:40:38.506Z,0
2017-04-18T03:41:18.964Z,0
2017-04-18T03:41:59.451Z,0
2017-04-18T03:42:39.940Z,0
2017-04-18T03:43:20.409Z,0
2017-04-18T03:44:00.904Z,0
2017-04-18T03:44:41.445Z,0
2017-04-18T03:45:21.860Z,0
2017-04-18T03:46:02.348Z,0
2017-04-18T03:46:42.829Z,0
2017-04-18T03:47:23.333Z,0
2017-04-18T03:48:03.813Z,0
2017-04-18T03:48:44.305Z,0
2017-04-18T03:49:24.764Z,0
2017-04-18T03:50:05.233Z,0
2017-04-18T03:52:38.230Z,0
2017-04-18T03:53:18.697Z,0
2017-04-18T03:53:59.925Z,0
2017-04-18T03:54:40.386Z,0
2017-04-18T03:55:20.864Z,0
2017-04-18T03:56:01.313Z,0
2017-04-18T03:56:41.794Z,0
2017-04-18T03:58:59.568Z,0
2017-04-18T03:59:40.056Z,0
2017-04-18T04:00:20.551Z,0
2017-04-18T04:01:01.049Z,0
2017-04-18T04:01:41.512Z,0
2017-04-18T04:02:22.004Z,0
2017-04-18T04:03:02.486Z,0
2017-04-18T04:03:42.986Z,0
2017-04-18T04:04:23.464Z,0
2017-04-18T04:05:03.955Z,0
2017-04-18T04:05:44.447Z,0
2017-04-18T04:06:24.934Z,0
2017-04-18T04:07:05.448Z,0
2017-04-18T04:07:45.937Z,0
2017-04-18T04:08:26.409Z,0
2017-04-18T04:09:06.884Z,0
2017-04-18T04:09:47.375Z,0
2017-04-18T04:10:27.854Z,0
2017-04-18T04:11:08.348Z,0
2017-04-18T04:11:48.814Z,0
2017-04-18T04:12:29.328Z,0
2017-04-18T04:13:09.775Z,0
2017-04-18T04:13:50.241Z,0
2017-04-18T04:14:30.749Z,0
2017-04-18T04:15:11.188Z,0
2017-04-18T04:15:51.694Z,0
2017-04-18T04:16:32.164Z,0
2017-04-18T04:17:12.637Z,0
2017-04-18T04:17:53.120Z,0
2017-04-18T04:18:33.598Z,0
2017-04-18T04:19:14.084Z,0
2017-04-18T04:19:54.561Z,0
2017-04-18T04:20:35.056Z,0
2017-04-18T04:21:15.527Z,0
2017-04-18T04:21:56.025Z,0
2017-04-18T04:22:36.506Z,0
2017-04-18T04:23:16.992Z,0
2017-04-18T04:23:57.480Z,0
2017-04-18T04:24:37.956Z,0
2017-04-18T04:25:18.434Z,0
2017-04-18T04:25:58.936Z,0
2017-04-18T04:26:39.443Z,0
2017-04-18T04:27:19.918Z,0
2017-04-18T04:28:00.378Z,0
2017-04-18T04:28:40.866Z,0
2017-04-18T04:29:21.350Z,0
2017-04-18T04:30:01.824Z,0
2017-04-18T04:30:42.309Z,5
2017-04-18T04:31:22.829Z,5
2017-04-18T04:32:03.271Z,5
2017-04-18T04:32:43.769Z,5
2017-04-18T04:33:24.243Z,5
2017-04-18T04:34:04.732Z,5
2017-04-18T04:34:45.221Z,5
2017-04-18T04:35:25.686Z,5
2017-04-18T04:36:06.172Z,5
2017-04-18T04:36:46.679Z,10
2017-04-18T04:37:27.131Z,10
2017-04-18T04:38:07.635Z,10
2017-04-18T04:38:48.110Z,10
2017-04-18T04:39:28.589Z,10
2017-04-18T04:40:09.080Z,10
2017-04-18T04:40:49.559Z,10
2017-04-18T04:41:30.092Z,10
2017-04-18T04:42:10.527Z,10
2017-04-18T04:42:51.043Z,10
2017-04-18T04:43:31.474Z,10
2017-04-18T04:44:11.962Z,10
2017-04-18T04:44:52.438Z,10
2017-04-18T04:45:32.921Z,10
2017-04-18T04:46:13.422Z,10
2017-04-18T04:46:53.907Z,10
2017-04-18T04:47:34.403Z,10
2017-04-18T04:48:14.896Z,15
2017-04-18T04:48:55.350Z,15
2017-04-18T04:49:35.848Z,15
2017-04-18T04:50:16.325Z,15
2017-04-18T04:50:56.808Z,15
2017-04-18T04:51:37.305Z,15
2017-04-18T04:52:17.787Z,15
2017-04-18T04:52:58.255Z,15
2017-04-18T04:53:38.743Z,10
2017-04-18T04:54:19.230Z,10
2017-04-18T04:54:59.722Z,10
2017-04-18T04:55:40.202Z,10
2017-04-18T04:56:20.677Z,10
2017-04-18T04:57:01.153Z,10
2017-04-18T04:57:41.593Z,10
2017-04-18T04:58:22.070Z,10
2017-04-18T04:59:02.532Z,15
2017-04-18T04:59:42.952Z,10
2017-04-18T05:00:23.375Z,10
2017-04-18T05:01:03.833Z,10
2017-04-18T05:01:44.267Z,10
2017-04-18T05:02:24.734Z,10
2017-04-18T05:03:05.148Z,10
2017-04-18T05:05:22.947Z,10
2017-04-18T05:06:03.435Z,15
2017-04-18T05:06:43.917Z,15
2017-04-18T05:07:24.404Z,15
2017-04-18T05:08:04.906Z,20
2017-04-18T05:08:45.361Z,20
2017-04-18T05:09:25.841Z,20
2017-04-18T05:10:06.369Z,25
2017-04-18T05:10:46.788Z,25
2017-04-18T05:11:27.275Z,25
2017-04-18T05:12:07.752Z,25
2017-04-18T05:12:48.241Z,25
2017-04-18T05:13:28.722Z,25
2017-04-18T05:14:09.211Z,25
2017-04-18T05:14:49.695Z,25
2017-04-18T05:15:30.167Z,25
2017-04-18T05:16:10.648Z,25
2017-04-18T05:16:51.117Z,25
2017-04-18T05:19:24.110Z,35
2017-04-18T05:20:04.578Z,35
2017-04-18T05:20:45.028Z,35
2017-04-18T05:21:25.501Z,35
2017-04-18T05:22:06.049Z,35
2017-04-18T05:22:46.546Z,30
2017-04-18T05:23:27.040Z,30
2017-04-18T05:24:07.498Z,30
2017-04-18T05:24:48.005Z,30
2017-04-18T05:25:28.492Z,30
2017-04-18T05:26:08.998Z,30
2017-04-18T05:26:49.458Z,30
2017-04-18T05:27:29.937Z,30
2017-04-18T05:28:10.426Z,25
2017-04-18T05:28:50.911Z,25
2017-04-18T05:29:31.416Z,30
2017-04-18T05:32:09.521Z,35
2017-04-18T05:32:49.959Z,35
2017-04-18T05:33:30.470Z,40
2017-04-18T05:34:10.900Z,40
2017-04-18T05:34:51.341Z,40
2017-04-18T05:35:31.777Z,45
2017-04-18T05:36:12.249Z,35
2017-04-18T05:36:52.708Z,30
2017-04-18T05:37:33.166Z,25
2017-04-18T05:38:13.609Z,25
2017-04-18T05:38:54.076Z,20
2017-04-18T05:39:34.555Z,20
2017-04-18T05:42:07.553Z,20
2017-04-18T05:42:48.129Z,20
2017-04-18T05:43:28.733Z,15
2017-04-18T05:44:09.225Z,15
2017-04-18T05:44:49.852Z,15
2017-04-18T05:45:30.406Z,15
2017-04-18T05:46:10.903Z,15
2017-04-18T05:46:51.376Z,15
2017-04-18T05:47:31.843Z,15
2017-04-18T05:50:09.944Z,15
2017-04-18T05:50:50.388Z,15
2017-04-18T05:51:30.880Z,15
2017-04-18T05:52:11.305Z,15
2017-04-18T05:52:51.805Z,15
2017-04-18T05:53:33.034Z,15
2017-04-18T05:54:13.480Z,15
2017-04-18T05:54:53.951Z,20
2017-04-18T05:55:34.368Z,20
2017-04-18T05:56:14.863Z,25
2017-04-18T05:56:55.349Z,25
2017-04-18T05:57:35.740Z,25
2017-04-18T05:58:16.183Z,25
2017-04-18T05:58:56.645Z,20
2017-04-18T05:59:37.087Z,25
2017-04-18T06:00:17.582Z,30
2017-04-18T06:00:58.029Z,30
2017-04-18T06:01:38.480Z,30
2017-04-18T06:04:06.431Z,35
2017-04-18T06:04:46.877Z,35
2017-04-18T06:05:27.354Z,35
2017-04-18T06:06:07.797Z,40
2017-04-18T06:06:48.246Z,40
2017-04-18T06:09:21.256Z,40
2017-04-18T06:10:01.726Z,40
2017-04-18T06:10:42.175Z,45
2017-04-18T06:11:22.667Z,45
2017-04-18T06:12:03.111Z,50
2017-04-18T06:12:43.570Z,50
2017-04-18T06:15:21.686Z,75
2017-04-18T06:16:02.162Z,85
2017-04-18T06:16:42.645Z,85
2017-04-18T06:17:23.069Z,90
2017-04-18T06:18:03.508Z,95
2017-04-18T06:18:43.962Z,100
2017-04-18T06:19:24.414Z,105
2017-04-18T06:20:04.889Z,120
2017-04-18T06:22:37.896Z,160
2017-04-18T06:23:18.378Z,160
2017-04-18T06:23:58.859Z,160
2017-04-18T06:24:39.341Z,155
2017-04-18T06:25:19.801Z,165
2017-04-18T06:26:00.255Z,170
2017-04-18T06:28:13.647Z,170
2017-04-18T06:28:54.121Z,170
2017-04-18T06:29:34.587Z,175
2017-04-18T06:30:15.057Z,175
2017-04-18T06:30:55.530Z,175
2017-04-18T06:31:36.046Z,165
2017-04-18T06:32:16.613Z,160
2017-04-18T06:32:57.129Z,150
2017-04-18T06:33:37.590Z,145
2017-04-18T06:34:18.072Z,135
2017-04-18T06:34:58.537Z,130
2017-04-18T06:35:38.999Z,130
2017-04-18T06:38:07.090Z,155
2017-04-18T06:38:47.473Z,165
2017-04-18T06:39:27.913Z,165
2017-04-18T06:40:08.420Z,165
2017-04-18T06:42:21.150Z,160
2017-04-18T06:43:01.635Z,155
2017-04-18T06:43:42.124Z,140
2017-04-18T06:44:22.583Z,115
2017-04-18T06:45:03.108Z,100
2017-04-18T06:45:43.585Z,90
2017-04-18T06:46:24.043Z,80
2017-04-18T06:47:04.518Z,75
2017-04-18T06:49:32.571Z,80
2017-04-18T06:52:00.488Z,90
2017-04-18T06:52:41.001Z,95
2017-04-18T06:53:21.426Z,100
2017-04-18T06:54:01.876Z,100
2017-04-18T06:54:42.354Z,105
2017-04-18T06:55:22.830Z,110
2017-04-18T06:56:03.318Z,105
2017-04-18T06:56:43.769Z,100
2017-04-18T06:57:24.230Z,100
2017-04-18T06:58:04.694Z,100
2017-04-18T06:58:45.178Z,100
2017-04-18T06:59:25.760Z,100
2017-04-18T07:00:06.154Z,100
2017-04-18T07:00:46.580Z,95
2017-04-18T07:01:27.036Z,95
2017-04-18T07:02:07.509Z,95
2017-04-18T07:02:47.981Z,95
2017-04-18T07:03:29.184Z,95
2017-04-18T07:04:09.644Z,95
2017-04-18T07:04:50.101Z,90
2017-04-18T07:05:30.599Z,95
2017-04-18T07:07:48.379Z,95
2017-04-18T07:08:28.869Z,95
2017-04-18T07:09:09.362Z,95
2017-04-18T07:09:49.824Z,100
2017-04-18T07:10:30.329Z,100
2017-04-18T07:11:10.810Z,100
2017-04-18T07:11:51.260Z,100
2017-04-18T07:12:31.727Z,100
2017-04-18T07:13:12.199Z,105
2017-04-18T07:13:52.678Z,105
2017-04-18T07:14:33.162Z,105
2017-04-18T07:15:13.645Z,110
2017-04-18T07:15:54.167Z,115
2017-04-18T07:16:34.659Z,110
2017-04-18T07:18:52.462Z,110
2017-04-18T07:19:32.923Z,105
2017-04-18T07:22:10.972Z,110
2017-04-18T07:22:51.429Z,110
2017-04-18T07:23:31.898Z,115
2017-04-18T07:25:44.632Z,105
2017-04-18T07:26:25.139Z,110
2017-04-18T07:27:05.645Z,120
2017-04-18T07:27:46.214Z,125
2017-04-18T07:28:26.703Z,135
2017-04-18T07:29:07.148Z,140
2017-04-18T07:31:40.162Z,120
2017-04-18T07:32:20.667Z,130
2017-04-18T07:33:01.169Z,145
2017-04-18T07:33:41.659Z,160
2017-04-18T07:34:22.203Z,180
2017-04-18T07:35:02.690Z,195
2017-04-18T07:35:43.227Z,195
2017-04-18T07:36:23.674Z,185
2017-04-18T07:37:04.141Z,190
2017-04-18T07:37:45.374Z,195
2017-04-18T07:38:25.866Z,195
2017-04-18T07:40:43.713Z,195
2017-04-18T07:41:24.253Z,185
2017-04-18T07:42:04.729Z,165
2017-04-18T07:42:45.186Z,145
2017-04-18T07:43:25.665Z,130
2017-04-18T07:45:43.458Z,120
2017-04-18T07:46:23.950Z,130
2017-04-18T07:47:04.431Z,130
2017-04-18T07:47:44.926Z,130
2017-04-18T07:48:25.392Z,130
2017-04-18T07:49:05.872Z,125
2017-04-18T07:49:46.334Z,130
2017-04-18T07:50:26.822Z,130
2017-04-18T07:51:07.313Z,130
2017-04-18T07:51:47.866Z,140
2017-04-18T07:52:28.289Z,155
2017-04-18T07:53:08.759Z,150
2017-04-18T07:53:49.250Z,135
2017-04-18T07:56:17.214Z,95
2017-04-18T07:56:57.614Z,85
2017-04-18T07:57:38.670Z,80
2017-04-18T07:58:19.152Z,75
2017-04-18T07:58:59.654Z,80
2017-04-18T07:59:40.135Z,80
2017-04-18T08:00:20.668Z,80
2017-04-18T08:01:01.162Z,80
2017-04-18T08:01:41.582Z,80
2017-04-18T08:02:22.077Z,85
2017-04-18T08:03:02.559Z,95
2017-04-18T08:03:43.112Z,100
2017-04-18T08:04:23.575Z,110
2017-04-18T08:05:04.045Z,115
2017-04-18T08:05:44.529Z,120
2017-04-18T08:06:24.960Z,140
2017-04-18T08:08:52.914Z,150
2017-04-18T08:09:33.390Z,150
2017-04-18T08:10:13.873Z,150
2017-04-18T08:10:54.309Z,150
2017-04-18T08:11:34.757Z,155
2017-04-18T08:12:15.292Z,150
2017-04-18T08:12:55.791Z,155
2017-04-18T08:13:36.312Z,155
2017-04-18T08:14:16.830Z,150
2017-04-18T08:14:57.317Z,155
2017-04-18T08:15:37.810Z,160
2017-04-18T08:16:18.319Z,165
2017-04-18T08:16:58.809Z,170
2017-04-18T08:17:39.282Z,190
2017-04-18T08:18:19.752Z,190
2017-04-18T08:19:00.222Z,200
2017-04-18T08:19:40.700Z,200
2017-04-18T08:20:21.226Z,195
2017-04-18T08:21:01.733Z,205
2017-04-18T08:21:42.999Z,220
2017-04-18T08:22:23.508Z,225
2017-04-18T08:23:03.983Z,225
2017-04-18T08:23:44.441Z,225
2017-04-18T08:24:24.920Z,235
2017-04-18T08:25:05.435Z,235
2017-04-18T08:25:45.955Z,245
2017-04-18T08:26:26.377Z,255
2017-04-18T08:27:06.930Z,270
2017-04-18T08:27:47.440Z,285
2017-04-18T08:28:27.933Z,290
2017-04-18T08:29:08.407Z,280
2017-04-18T08:29:48.913Z,280
2017-04-18T08:30:29.435Z,280
2017-04-18T08:31:09.933Z,285
2017-04-18T08:31:50.424Z,295
2017-04-18T08:32:30.959Z,310
2017-04-18T08:33:11.528Z,320
2017-04-18T08:33:52.023Z,325
2017-04-18T08:34:32.496Z,340
2017-04-18T08:36:45.248Z,385
2017-04-18T08:37:25.768Z,400
2017-04-18T08:38:06.260Z,435
2017-04-18T08:38:46.822Z,450
2017-04-18T08:39:27.315Z,475
2017-04-18T08:40:08.528Z,495
2017-04-18T08:40:49.024Z,500
2017-04-18T08:41:29.566Z,495
2017-04-18T08:44:02.589Z,470
2017-04-18T08:44:43.081Z,450
2017-04-18T08:45:23.576Z,435
2017-04-18T08:46:04.043Z,410
2017-04-18T08:46:44.604Z,375
2017-04-18T08:47:25.048Z,360
2017-04-18T08:48:05.624Z,355
2017-04-18T08:48:46.101Z,355
2017-04-18T08:49:26.555Z,355
2017-04-18T08:50:07.068Z,360
2017-04-18T08:50:47.659Z,375
2017-04-18T08:51:28.130Z,380
2017-04-18T08:52:08.625Z,380
2017-04-18T08:54:46.792Z,390
2017-04-18T08:55:27.259Z,420
2017-04-18T08:56:07.756Z,455
2017-04-18T08:56:48.285Z,490
2017-04-18T08:57:28.781Z,540
2017-04-18T08:58:09.279Z,555
2017-04-18T08:58:49.846Z,575
2017-04-18T08:59:30.272Z,580
2017-04-18T09:00:10.718Z,565
2017-04-18T09:02:28.485Z,480
2017-04-18T09:03:08.961Z,455
2017-04-18T09:05:26.814Z,395
2017-04-18T09:06:07.290Z,375
2017-04-18T09:06:47.810Z,365
2017-04-18T09:07:28.329Z,360
2017-04-18T09:08:08.780Z,355
2017-04-18T09:10:21.715Z,370
2017-04-18T09:11:02.197Z,385
2017-04-18T09:11:42.669Z,395
2017-04-18T09:12:23.149Z,410
2017-04-18T09:13:03.631Z,415
2017-04-18T09:13:44.137Z,415
2017-04-18T09:14:24.831Z,410
2017-04-18T09:15:05.515Z,405
2017-04-18T09:15:46.328Z,390
2017-04-18T09:16:27.057Z,375
2017-04-18T09:17:07.760Z,350
2017-04-18T09:17:48.615Z,320
2017-04-18T09:18:29.351Z,300
2017-04-18T09:19:10.101Z,320
2017-04-18T09:19:50.745Z,355
2017-04-18T09:20:31.861Z,395
2017-04-18T09:21:12.817Z,430
2017-04-18T09:21:54.107Z,460
2017-04-18T09:22:34.948Z,480
2017-04-18T09:23:15.713Z,515
2017-04-18T09:23:56.641Z,545
2017-04-18T09:24:37.461Z,575
2017-04-18T09:25:18.308Z,630
2017-04-18T09:25:59.068Z,650
2017-04-18T09:26:39.659Z,615
2017-04-18T09:27:20.355Z,605
2017-04-18T09:28:01.312Z,620
2017-04-18T09:28:42.196Z,650
2017-04-18T09:29:22.933Z,670
2017-04-18T09:30:03.741Z,685
2017-04-18T09:30:44.333Z,700
2017-04-18T09:31:25.126Z,715
2017-04-18T09:32:05.765Z,990
2017-04-18T09:32:46.465Z,605
2017-04-18T09:33:27.225Z,510
2017-04-18T09:34:08.115Z,450
2017-04-18T09:34:48.914Z,430
2017-04-18T09:35:29.509Z,415
2017-04-18T09:36:10.341Z,390
2017-04-18T09:36:50.782Z,390
2017-04-18T09:37:31.443Z,390
2017-04-18T09:38:12.357Z,405
2017-04-18T09:38:52.996Z,430
2017-04-18T09:39:33.818Z,465
2017-04-18T09:40:14.837Z,490
2017-04-18T09:40:55.747Z,525
2017-04-18T09:41:36.434Z,555
2017-04-18T09:42:17.053Z,585
2017-04-18T09:42:57.914Z,625
2017-04-18T09:43:38.883Z,590
2017-04-18T09:44:19.785Z,570
2017-04-18T09:45:01.842Z,560
2017-04-18T09:45:43.410Z,540
2017-04-18T09:46:24.950Z,540
2017-04-18T09:47:06.541Z,555
2017-04-18T09:47:47.428Z,575
2017-04-18T09:48:28.454Z,590
2017-04-18T09:51:06.640Z,720
2017-04-18T09:51:47.128Z,640
2017-04-18T09:52:27.797Z,605
2017-04-18T09:53:08.300Z,1885
2017-04-18T09:55:41.347Z,2495
2017-04-18T09:56:21.825Z,3070
2017-04-18T09:57:03.033Z,3190
2017-04-18T09:57:43.704Z,1900
2017-04-18T09:58:24.630Z,1725
2017-04-18T09:59:06.274Z,2360
2017-04-18T09:59:46.752Z,890
2017-04-18T10:00:27.224Z,1470
2017-04-18T10:01:07.661Z,1755
2017-04-18T10:03:40.729Z,3435
2017-04-18T10:04:21.203Z,2490
2017-04-18T10:05:01.714Z,2625
2017-04-18T10:05:42.255Z,1005
2017-04-18T10:06:22.708Z,755
2017-04-18T10:07:04.089Z,640
2017-04-18T10:07:44.392Z,560
2017-04-18T10:08:24.899Z,510
2017-04-18T10:09:05.411Z,465
2017-04-18T10:09:45.891Z,365
2017-04-18T10:10:26.338Z,330
2017-04-18T10:12:54.430Z,245
2017-04-18T10:13:34.862Z,210
2017-04-18T10:14:15.335Z,175
2017-04-18T10:16:28.108Z,110
2017-04-18T10:17:08.507Z,110
2017-04-18T10:17:50.100Z,120
2017-04-18T10:18:31.413Z,130
2017-04-18T10:19:12.303Z,145
2017-04-18T10:19:52.797Z,160
2017-04-18T10:20:33.296Z,180
2017-04-18T10:21:13.811Z,190
2017-04-18T10:21:54.289Z,200
2017-04-18T10:22:34.780Z,225
2017-04-18T10:23:15.310Z,255
2017-04-18T10:23:55.766Z,280
2017-04-18T10:26:08.497Z,320
2017-04-18T10:26:48.971Z,330
2017-04-18T10:27:29.474Z,335
2017-04-18T10:28:10.066Z,335
2017-04-18T10:28:50.540Z,340
2017-04-18T10:29:31.035Z,360
2017-04-18T10:30:11.589Z,400
2017-04-18T10:30:52.065Z,490
2017-04-18T10:31:32.568Z,835
2017-04-18T10:32:13.043Z,630
2017-04-18T10:32:53.734Z,560
2017-04-18T10:33:34.486Z,990
2017-04-18T10:34:15.536Z,2695
2017-04-18T10:34:56.479Z,2010
2017-04-18T10:35:38.772Z,1265
2017-04-18T10:36:19.603Z,845
2017-04-18T10:37:00.513Z,790
2017-04-18T10:37:42.392Z,760
2017-04-18T10:38:23.612Z,750
2017-04-18T10:39:04.828Z,775
2017-04-18T10:39:46.188Z,825
2017-04-18T10:40:26.812Z,915
2017-04-18T10:41:07.856Z,980
2017-04-18T10:41:48.556Z,1070
2017-04-18T10:42:30.072Z,1120
2017-04-18T10:43:11.009Z,1030
2017-04-18T10:43:51.941Z,920
2017-04-18T10:44:32.952Z,815
2017-04-18T10:45:14.476Z,665
2017-04-18T10:45:55.442Z,640
2017-04-18T10:46:36.186Z,640
2017-04-18T10:47:16.736Z,535
2017-04-18T10:49:54.858Z,495
2017-04-18T10:50:35.418Z,480
2017-04-18T10:52:53.389Z,455
2017-04-18T10:53:33.891Z,470
2017-04-18T10:54:14.368Z,505
2017-04-18T10:54:54.777Z,530
2017-04-18T10:55:35.217Z,540
2017-04-18T10:58:03.268Z,615
2017-04-18T10:58:44.028Z,650
2017-04-18T10:59:24.336Z,740
2017-04-18T11:00:04.723Z,860
2017-04-18T11:00:45.291Z,965
2017-04-18T11:01:25.791Z,2060
2017-04-18T11:02:06.435Z,1530
2017-04-18T11:02:46.971Z,1015
2017-04-18T11:03:27.381Z,1430
2017-04-18T11:04:07.932Z,1930